sensor_id;sensor_type;location;lat;lon;timestamp;P1;durP1;ratioP1;P2;durP2;ratioP2
2824;SDS011;1420;51.324;12.344;2023-07-28T00:00:46;4.44;;;0.72;;
2824;SDS011;1420;51.324;12.344;2023-07-28T00:03:13;3.40;;;0.72;;
2824;SDS011;1420;51.324;12.344;2023-07-28T00:05:41;3.90;;;0.70;;
2824;SDS011;1420;51.324;12.344;2023-07-28T00:08:08;4.18;;;0.70;;
2824;SDS011;1420;51.324;12.344;2023-07-28T00:10:39;3.26;;;0.60;;
2824;SDS011;1420;51.324;12.344;2023-07-28T00:13:09;4.86;;;0.80;;
2824;SDS011;1420;51.324;12.344;2023-07-28T00:15:36;4.08;;;0.60;;
2824;SDS011;1420;51.324;12.344;2023-07-28T00:18:04;3.80;;;0.70;;
2824;SDS011;1420;51.324;12.344;2023-07-28T00:20:31;3.26;;;0.66;;
2824;SDS011;1420;51.324;12.344;2023-07-28T00:22:58;4.26;;;0.70;;
2824;SDS011;1420;51.324;12.344;2023-07-28T00:25:25;3.40;;;0.60;;
2824;SDS011;1420;51.324;12.344;2023-07-28T00:27:52;3.00;;;0.58;;
2824;SDS011;1420;51.324;12.344;2023-07-28T00:30:20;3.52;;;0.60;;
2824;SDS011;1420;51.324;12.344;2023-07-28T00:32:47;3.62;;;0.70;;
2824;SDS011;1420;51.324;12.344;2023-07-28T00:35:14;3.38;;;0.56;;
2824;SDS011;1420;51.324;12.344;2023-07-28T00:37:41;3.30;;;0.86;;
2824;SDS011;1420;51.324;12.344;2023-07-28T00:40:09;3.40;;;0.80;;
2824;SDS011;1420;51.324;12.344;2023-07-28T00:42:37;3.30;;;0.60;;
2824;SDS011;1420;51.324;12.344;2023-07-28T00:45:05;3.92;;;0.50;;
2824;SDS011;1420;51.324;12.344;2023-07-28T00:47:33;4.26;;;0.70;;
2824;SDS011;1420;51.324;12.344;2023-07-28T00:50:01;3.50;;;0.60;;
2824;SDS011;1420;51.324;12.344;2023-07-28T00:52:28;4.38;;;0.92;;
2824;SDS011;1420;51.324;12.344;2023-07-28T00:54:55;7.16;;;1.40;;
2824;SDS011;1420;51.324;12.344;2023-07-28T00:57:23;3.34;;;0.50;;
2824;SDS011;1420;51.324;12.344;2023-07-28T00:59:51;3.82;;;0.80;;
2824;SDS011;1420;51.324;12.344;2023-07-28T01:02:19;3.64;;;0.60;;
2824;SDS011;1420;51.324;12.344;2023-07-28T01:04:47;3.38;;;0.66;;
2824;SDS011;1420;51.324;12.344;2023-07-28T01:07:17;3.44;;;0.72;;
2824;SDS011;1420;51.324;12.344;2023-07-28T01:09:47;3.52;;;0.60;;
2824;SDS011;1420;51.324;12.344;2023-07-28T01:12:10;3.14;;;0.60;;
2824;SDS011;1420;51.324;12.344;2023-07-28T01:14:37;3.54;;;0.60;;
2824;SDS011;1420;51.324;12.344;2023-07-28T01:17:05;3.60;;;0.70;;
2824;SDS011;1420;51.324;12.344;2023-07-28T01:19:33;3.74;;;0.60;;
2824;SDS011;1420;51.324;12.344;2023-07-28T01:24:55;4.28;;;0.56;;
2824;SDS011;1420;51.324;12.344;2023-07-28T01:27:22;3.30;;;0.60;;
2824;SDS011;1420;51.324;12.344;2023-07-28T01:29:50;4.52;;;0.84;;
2824;SDS011;1420;51.324;12.344;2023-07-28T01:32:18;3.38;;;0.60;;
2824;SDS011;1420;51.324;12.344;2023-07-28T01:34:46;4.10;;;1.10;;
2824;SDS011;1420;51.324;12.344;2023-07-28T01:37:14;4.28;;;0.58;;
2824;SDS011;1420;51.324;12.344;2023-07-28T01:39:42;3.50;;;0.60;;
2824;SDS011;1420;51.324;12.344;2023-07-28T01:42:10;3.30;;;0.52;;
2824;SDS011;1420;51.324;12.344;2023-07-28T01:44:37;4.08;;;0.82;;
2824;SDS011;1420;51.324;12.344;2023-07-28T01:47:04;3.86;;;0.60;;
2824;SDS011;1420;51.324;12.344;2023-07-28T01:49:31;3.58;;;0.58;;
2824;SDS011;1420;51.324;12.344;2023-07-28T01:51:59;4.22;;;0.80;;
2824;SDS011;1420;51.324;12.344;2023-07-28T01:54:26;4.00;;;0.64;;
2824;SDS011;1420;51.324;12.344;2023-07-28T01:56:53;3.64;;;0.70;;
2824;SDS011;1420;51.324;12.344;2023-07-28T01:59:20;3.80;;;0.62;;
2824;SDS011;1420;51.324;12.344;2023-07-28T02:01:47;3.98;;;0.80;;
2824;SDS011;1420;51.324;12.344;2023-07-28T02:04:15;4.20;;;0.70;;
2824;SDS011;1420;51.324;12.344;2023-07-28T02:06:42;3.60;;;0.60;;
2824;SDS011;1420;51.324;12.344;2023-07-28T02:09:09;6.56;;;0.62;;
2824;SDS011;1420;51.324;12.344;2023-07-28T02:11:36;4.06;;;0.66;;
2824;SDS011;1420;51.324;12.344;2023-07-28T02:14:03;3.70;;;1.16;;
2824;SDS011;1420;51.324;12.344;2023-07-28T02:16:31;4.04;;;0.88;;
2824;SDS011;1420;51.324;12.344;2023-07-28T02:18:58;5.10;;;0.70;;
2824;SDS011;1420;51.324;12.344;2023-07-28T02:21:25;3.90;;;0.60;;
2824;SDS011;1420;51.324;12.344;2023-07-28T02:23:52;3.84;;;0.70;;
2824;SDS011;1420;51.324;12.344;2023-07-28T02:26:19;3.74;;;0.62;;
2824;SDS011;1420;51.324;12.344;2023-07-28T02:28:47;3.36;;;0.60;;
2824;SDS011;1420;51.324;12.344;2023-07-28T02:31:14;4.12;;;0.66;;
2824;SDS011;1420;51.324;12.344;2023-07-28T02:33:41;4.00;;;0.68;;
2824;SDS011;1420;51.324;12.344;2023-07-28T02:36:08;4.72;;;0.78;;
2824;SDS011;1420;51.324;12.344;2023-07-28T02:38:35;4.42;;;0.80;;
2824;SDS011;1420;51.324;12.344;2023-07-28T02:41:03;4.02;;;0.70;;
2824;SDS011;1420;51.324;12.344;2023-07-28T02:43:30;5.88;;;0.62;;
2824;SDS011;1420;51.324;12.344;2023-07-28T02:45:57;4.64;;;0.80;;
2824;SDS011;1420;51.324;12.344;2023-07-28T02:48:24;3.94;;;0.62;;
2824;SDS011;1420;51.324;12.344;2023-07-28T02:50:52;4.36;;;0.60;;
2824;SDS011;1420;51.324;12.344;2023-07-28T02:53:20;3.58;;;0.70;;
2824;SDS011;1420;51.324;12.344;2023-07-28T02:55:48;4.24;;;0.52;;
2824;SDS011;1420;51.324;12.344;2023-07-28T02:58:16;4.22;;;0.60;;
2824;SDS011;1420;51.324;12.344;2023-07-28T03:00:44;4.40;;;0.60;;
2824;SDS011;1420;51.324;12.344;2023-07-28T03:03:12;3.68;;;0.60;;
2824;SDS011;1420;51.324;12.344;2023-07-28T03:05:40;4.12;;;0.60;;
2824;SDS011;1420;51.324;12.344;2023-07-28T03:08:07;5.12;;;0.70;;
2824;SDS011;1420;51.324;12.344;2023-07-28T03:10:34;3.80;;;0.70;;
2824;SDS011;1420;51.324;12.344;2023-07-28T03:13:02;4.22;;;0.88;;
2824;SDS011;1420;51.324;12.344;2023-07-28T03:15:29;3.74;;;0.56;;
2824;SDS011;1420;51.324;12.344;2023-07-28T03:17:56;3.64;;;0.76;;
2824;SDS011;1420;51.324;12.344;2023-07-28T03:20:23;3.88;;;0.88;;
2824;SDS011;1420;51.324;12.344;2023-07-28T03:22:50;4.00;;;0.84;;
2824;SDS011;1420;51.324;12.344;2023-07-28T03:25:18;3.72;;;0.66;;
2824;SDS011;1420;51.324;12.344;2023-07-28T03:27:45;3.20;;;0.90;;
2824;SDS011;1420;51.324;12.344;2023-07-28T03:30:12;4.64;;;0.60;;
2824;SDS011;1420;51.324;12.344;2023-07-28T03:32:39;4.40;;;0.70;;
2824;SDS011;1420;51.324;12.344;2023-07-28T03:35:07;3.54;;;0.50;;
2824;SDS011;1420;51.324;12.344;2023-07-28T03:37:34;4.98;;;1.00;;
2824;SDS011;1420;51.324;12.344;2023-07-28T03:40:01;3.96;;;1.30;;
2824;SDS011;1420;51.324;12.344;2023-07-28T03:42:28;3.98;;;0.66;;
2824;SDS011;1420;51.324;12.344;2023-07-28T03:44:56;3.58;;;0.60;;
2824;SDS011;1420;51.324;12.344;2023-07-28T03:47:23;4.48;;;0.70;;
2824;SDS011;1420;51.324;12.344;2023-07-28T03:49:50;4.72;;;0.84;;
2824;SDS011;1420;51.324;12.344;2023-07-28T03:52:17;4.10;;;0.60;;
2824;SDS011;1420;51.324;12.344;2023-07-28T03:54:44;3.88;;;0.68;;
2824;SDS011;1420;51.324;12.344;2023-07-28T03:57:12;3.70;;;0.58;;
2824;SDS011;1420;51.324;12.344;2023-07-28T03:59:39;3.82;;;0.60;;
2824;SDS011;1420;51.324;12.344;2023-07-28T04:02:06;3.86;;;0.60;;
2824;SDS011;1420;51.324;12.344;2023-07-28T04:04:34;4.28;;;0.54;;
2824;SDS011;1420;51.324;12.344;2023-07-28T04:07:00;3.80;;;0.60;;
2824;SDS011;1420;51.324;12.344;2023-07-28T04:09:28;3.98;;;0.80;;
2824;SDS011;1420;51.324;12.344;2023-07-28T04:11:55;4.14;;;0.64;;
2824;SDS011;1420;51.324;12.344;2023-07-28T04:14:22;3.66;;;0.64;;
2824;SDS011;1420;51.324;12.344;2023-07-28T04:16:49;3.70;;;0.82;;
2824;SDS011;1420;51.324;12.344;2023-07-28T04:19:16;3.40;;;0.60;;
2824;SDS011;1420;51.324;12.344;2023-07-28T04:21:44;3.42;;;0.60;;
2824;SDS011;1420;51.324;12.344;2023-07-28T04:24:11;3.32;;;0.58;;
2824;SDS011;1420;51.324;12.344;2023-07-28T04:26:38;3.46;;;0.60;;
2824;SDS011;1420;51.324;12.344;2023-07-28T04:29:05;3.72;;;0.60;;
2824;SDS011;1420;51.324;12.344;2023-07-28T04:31:32;4.06;;;0.70;;
2824;SDS011;1420;51.324;12.344;2023-07-28T04:34:01;5.14;;;0.70;;
2824;SDS011;1420;51.324;12.344;2023-07-28T04:36:28;3.48;;;0.60;;
2824;SDS011;1420;51.324;12.344;2023-07-28T04:38:56;3.68;;;0.60;;
2824;SDS011;1420;51.324;12.344;2023-07-28T04:41:24;4.34;;;0.60;;
2824;SDS011;1420;51.324;12.344;2023-07-28T04:43:52;4.16;;;0.70;;
2824;SDS011;1420;51.324;12.344;2023-07-28T04:46:20;4.08;;;0.90;;
2824;SDS011;1420;51.324;12.344;2023-07-28T04:48:48;5.24;;;0.84;;
2824;SDS011;1420;51.324;12.344;2023-07-28T04:51:15;3.78;;;0.80;;
2824;SDS011;1420;51.324;12.344;2023-07-28T04:53:43;4.28;;;0.70;;
2824;SDS011;1420;51.324;12.344;2023-07-28T04:56:11;3.16;;;0.60;;
2824;SDS011;1420;51.324;12.344;2023-07-28T04:58:39;4.50;;;0.60;;
2824;SDS011;1420;51.324;12.344;2023-07-28T05:01:06;4.24;;;0.50;;
2824;SDS011;1420;51.324;12.344;2023-07-28T05:03:33;4.28;;;0.74;;
2824;SDS011;1420;51.324;12.344;2023-07-28T05:06:02;3.26;;;0.50;;
2824;SDS011;1420;51.324;12.344;2023-07-28T05:08:27;3.30;;;0.60;;
2824;SDS011;1420;51.324;12.344;2023-07-28T05:10:55;3.62;;;0.70;;
2824;SDS011;1420;51.324;12.344;2023-07-28T05:13:22;3.40;;;0.60;;
2824;SDS011;1420;51.324;12.344;2023-07-28T05:15:49;5.06;;;0.80;;
2824;SDS011;1420;51.324;12.344;2023-07-28T05:18:16;3.86;;;0.70;;
2824;SDS011;1420;51.324;12.344;2023-07-28T05:20:43;4.54;;;0.80;;
2824;SDS011;1420;51.324;12.344;2023-07-28T05:23:11;5.42;;;0.60;;
2824;SDS011;1420;51.324;12.344;2023-07-28T05:25:38;3.86;;;0.60;;
2824;SDS011;1420;51.324;12.344;2023-07-28T05:28:05;4.84;;;0.60;;
2824;SDS011;1420;51.324;12.344;2023-07-28T05:30:32;4.22;;;0.60;;
2824;SDS011;1420;51.324;12.344;2023-07-28T05:32:59;4.52;;;0.60;;
2824;SDS011;1420;51.324;12.344;2023-07-28T05:35:27;3.58;;;0.50;;
2824;SDS011;1420;51.324;12.344;2023-07-28T05:37:55;4.64;;;0.80;;
2824;SDS011;1420;51.324;12.344;2023-07-28T05:40:23;4.36;;;0.68;;
2824;SDS011;1420;51.324;12.344;2023-07-28T05:42:51;5.84;;;0.92;;
2824;SDS011;1420;51.324;12.344;2023-07-28T05:45:18;5.16;;;0.70;;
2824;SDS011;1420;51.324;12.344;2023-07-28T05:47:45;4.60;;;0.60;;
2824;SDS011;1420;51.324;12.344;2023-07-28T05:50:13;4.52;;;0.88;;
2824;SDS011;1420;51.324;12.344;2023-07-28T05:52:41;5.02;;;0.60;;
2824;SDS011;1420;51.324;12.344;2023-07-28T05:55:09;6.70;;;0.92;;
2824;SDS011;1420;51.324;12.344;2023-07-28T05:57:37;4.36;;;0.50;;
2824;SDS011;1420;51.324;12.344;2023-07-28T06:00:06;5.18;;;1.56;;
2824;SDS011;1420;51.324;12.344;2023-07-28T06:02:35;4.46;;;0.60;;
2824;SDS011;1420;51.324;12.344;2023-07-28T06:05:03;4.62;;;0.80;;
2824;SDS011;1420;51.324;12.344;2023-07-28T06:07:30;5.76;;;0.62;;
2824;SDS011;1420;51.324;12.344;2023-07-28T06:09:58;4.90;;;0.50;;
2824;SDS011;1420;51.324;12.344;2023-07-28T06:12:25;5.54;;;0.70;;
2824;SDS011;1420;51.324;12.344;2023-07-28T06:14:53;5.32;;;0.64;;
2824;SDS011;1420;51.324;12.344;2023-07-28T06:17:20;6.76;;;0.70;;
2824;SDS011;1420;51.324;12.344;2023-07-28T06:19:47;8.04;;;0.60;;
2824;SDS011;1420;51.324;12.344;2023-07-28T06:22:14;7.54;;;0.80;;
2824;SDS011;1420;51.324;12.344;2023-07-28T06:24:41;6.50;;;0.60;;
2824;SDS011;1420;51.324;12.344;2023-07-28T06:27:09;6.32;;;0.70;;
2824;SDS011;1420;51.324;12.344;2023-07-28T06:29:36;6.84;;;0.74;;
2824;SDS011;1420;51.324;12.344;2023-07-28T06:32:03;6.72;;;0.70;;
2824;SDS011;1420;51.324;12.344;2023-07-28T06:34:31;6.78;;;0.70;;
2824;SDS011;1420;51.324;12.344;2023-07-28T06:36:58;6.84;;;0.60;;
2824;SDS011;1420;51.324;12.344;2023-07-28T06:39:25;6.50;;;0.70;;
2824;SDS011;1420;51.324;12.344;2023-07-28T06:41:52;8.48;;;0.76;;
2824;SDS011;1420;51.324;12.344;2023-07-28T06:44:19;7.34;;;0.60;;
2824;SDS011;1420;51.324;12.344;2023-07-28T06:46:47;6.42;;;0.60;;
2824;SDS011;1420;51.324;12.344;2023-07-28T06:49:14;6.82;;;0.70;;
2824;SDS011;1420;51.324;12.344;2023-07-28T06:51:41;7.36;;;0.86;;
2824;SDS011;1420;51.324;12.344;2023-07-28T06:54:08;6.18;;;0.60;;
2824;SDS011;1420;51.324;12.344;2023-07-28T06:56:35;5.86;;;0.50;;
2824;SDS011;1420;51.324;12.344;2023-07-28T06:59:03;6.30;;;0.66;;
2824;SDS011;1420;51.324;12.344;2023-07-28T07:01:30;6.42;;;0.70;;
2824;SDS011;1420;51.324;12.344;2023-07-28T07:03:57;9.16;;;1.20;;
2824;SDS011;1420;51.324;12.344;2023-07-28T07:06:24;7.50;;;0.96;;
2824;SDS011;1420;51.324;12.344;2023-07-28T07:08:51;9.68;;;0.88;;
2824;SDS011;1420;51.324;12.344;2023-07-28T07:11:19;7.12;;;1.02;;
2824;SDS011;1420;51.324;12.344;2023-07-28T07:13:46;12.74;;;1.26;;
2824;SDS011;1420;51.324;12.344;2023-07-28T07:16:14;8.12;;;1.00;;
2824;SDS011;1420;51.324;12.344;2023-07-28T07:18:43;13.68;;;2.44;;
2824;SDS011;1420;51.324;12.344;2023-07-28T07:21:11;9.54;;;2.06;;
2824;SDS011;1420;51.324;12.344;2023-07-28T07:23:38;10.54;;;2.08;;
2824;SDS011;1420;51.324;12.344;2023-07-28T07:26:06;10.40;;;3.18;;
2824;SDS011;1420;51.324;12.344;2023-07-28T07:28:34;11.72;;;5.08;;
2824;SDS011;1420;51.324;12.344;2023-07-28T07:31:02;9.30;;;1.32;;
2824;SDS011;1420;51.324;12.344;2023-07-28T07:33:30;11.18;;;6.02;;
2824;SDS011;1420;51.324;12.344;2023-07-28T07:35:58;11.04;;;3.28;;
2824;SDS011;1420;51.324;12.344;2023-07-28T07:38:26;14.90;;;9.64;;
2824;SDS011;1420;51.324;12.344;2023-07-28T07:40:54;11.02;;;4.94;;
2824;SDS011;1420;51.324;12.344;2023-07-28T07:43:22;9.76;;;2.34;;
2824;SDS011;1420;51.324;12.344;2023-07-28T07:45:50;9.96;;;2.44;;
2824;SDS011;1420;51.324;12.344;2023-07-28T07:48:18;10.10;;;2.20;;
2824;SDS011;1420;51.324;12.344;2023-07-28T07:50:46;11.52;;;2.42;;
2824;SDS011;1420;51.324;12.344;2023-07-28T07:53:14;13.24;;;8.78;;
2824;SDS011;1420;51.324;12.344;2023-07-28T07:55:42;16.06;;;8.40;;
2824;SDS011;1420;51.324;12.344;2023-07-28T07:58:10;15.30;;;13.40;;
2824;SDS011;1420;51.324;12.344;2023-07-28T08:00:38;12.40;;;6.42;;
2824;SDS011;1420;51.324;12.344;2023-07-28T08:03:06;13.24;;;8.12;;
2824;SDS011;1420;51.324;12.344;2023-07-28T08:05:34;12.04;;;6.46;;
2824;SDS011;1420;51.324;12.344;2023-07-28T08:08:02;12.90;;;6.34;;
2824;SDS011;1420;51.324;12.344;2023-07-28T08:10:29;17.10;;;15.30;;
2824;SDS011;1420;51.324;12.344;2023-07-28T08:12:57;29.92;;;27.42;;
2824;SDS011;1420;51.324;12.344;2023-07-28T08:15:25;37.14;;;33.94;;
2824;SDS011;1420;51.324;12.344;2023-07-28T08:17:53;51.28;;;47.96;;
2824;SDS011;1420;51.324;12.344;2023-07-28T08:20:21;43.88;;;40.84;;
2824;SDS011;1420;51.324;12.344;2023-07-28T08:22:48;33.28;;;30.58;;
2824;SDS011;1420;51.324;12.344;2023-07-28T08:25:16;46.34;;;43.14;;
2824;SDS011;1420;51.324;12.344;2023-07-28T08:27:44;36.10;;;33.28;;
2824;SDS011;1420;51.324;12.344;2023-07-28T08:30:12;31.80;;;29.02;;
2824;SDS011;1420;51.324;12.344;2023-07-28T08:32:39;34.70;;;31.84;;
2824;SDS011;1420;51.324;12.344;2023-07-28T08:35:06;30.86;;;28.16;;
2824;SDS011;1420;51.324;12.344;2023-07-28T08:37:33;24.32;;;21.82;;
2824;SDS011;1420;51.324;12.344;2023-07-28T08:40:01;28.08;;;25.56;;
2824;SDS011;1420;51.324;12.344;2023-07-28T08:42:29;25.46;;;23.04;;
2824;SDS011;1420;51.324;12.344;2023-07-28T08:44:57;37.62;;;34.72;;
2824;SDS011;1420;51.324;12.344;2023-07-28T08:49:52;24.92;;;22.68;;
2824;SDS011;1420;51.324;12.344;2023-07-28T08:52:19;18.16;;;14.48;;
2824;SDS011;1420;51.324;12.344;2023-07-28T08:54:47;19.00;;;12.32;;
2824;SDS011;1420;51.324;12.344;2023-07-28T08:57:14;26.44;;;21.16;;
2824;SDS011;1420;51.324;12.344;2023-07-28T08:59:41;19.08;;;15.12;;
2824;SDS011;1420;51.324;12.344;2023-07-28T09:02:09;36.86;;;33.86;;
2824;SDS011;1420;51.324;12.344;2023-07-28T09:04:36;60.10;;;56.10;;
2824;SDS011;1420;51.324;12.344;2023-07-28T09:07:04;211.44;;;201.06;;
2824;SDS011;1420;51.324;12.344;2023-07-28T09:09:31;325.28;;;309.88;;
2824;SDS011;1420;51.324;12.344;2023-07-28T09:11:59;418.76;;;398.90;;
2824;SDS011;1420;51.324;12.344;2023-07-28T09:14:26;593.02;;;559.94;;
2824;SDS011;1420;51.324;12.344;2023-07-28T09:16:53;673.52;;;634.08;;
2824;SDS011;1420;51.324;12.344;2023-07-28T09:19:21;659.86;;;621.06;;
2824;SDS011;1420;51.324;12.344;2023-07-28T09:24:31;725.98;;;682.50;;
2824;SDS011;1420;51.324;12.344;2023-07-28T09:26:59;647.32;;;608.94;;
2824;SDS011;1420;51.324;12.344;2023-07-28T09:29:27;700.50;;;659.28;;
2824;SDS011;1420;51.324;12.344;2023-07-28T09:32:02;717.70;;;674.90;;
2824;SDS011;1420;51.324;12.344;2023-07-28T09:34:30;701.56;;;661.40;;
2824;SDS011;1420;51.324;12.344;2023-07-28T09:36:59;560.10;;;528.24;;
2824;SDS011;1420;51.324;12.344;2023-07-28T09:39:26;571.96;;;540.82;;
2824;SDS011;1420;51.324;12.344;2023-07-28T09:41:53;620.92;;;586.08;;
2824;SDS011;1420;51.324;12.344;2023-07-28T09:44:20;657.04;;;618.96;;
2824;SDS011;1420;51.324;12.344;2023-07-28T09:46:50;640.00;;;604.82;;
2824;SDS011;1420;51.324;12.344;2023-07-28T09:49:21;613.54;;;579.46;;
2824;SDS011;1420;51.324;12.344;2023-07-28T09:51:48;612.80;;;578.98;;
2824;SDS011;1420;51.324;12.344;2023-07-28T09:54:20;620.32;;;587.02;;
2824;SDS011;1420;51.324;12.344;2023-07-28T09:56:45;552.58;;;524.18;;
2824;SDS011;1420;51.324;12.344;2023-07-28T09:59:13;501.48;;;476.38;;
2824;SDS011;1420;51.324;12.344;2023-07-28T10:01:40;687.62;;;644.16;;
2824;SDS011;1420;51.324;12.344;2023-07-28T10:04:07;503.68;;;478.36;;
2824;SDS011;1420;51.324;12.344;2023-07-28T10:06:35;501.02;;;475.56;;
2824;SDS011;1420;51.324;12.344;2023-07-28T10:09:02;441.70;;;420.02;;
2824;SDS011;1420;51.324;12.344;2023-07-28T10:11:30;458.30;;;435.56;;
2824;SDS011;1420;51.324;12.344;2023-07-28T10:13:57;414.42;;;394.74;;
2824;SDS011;1420;51.324;12.344;2023-07-28T10:16:30;426.88;;;405.84;;
2824;SDS011;1420;51.324;12.344;2023-07-28T10:18:58;460.42;;;437.76;;
2824;SDS011;1420;51.324;12.344;2023-07-28T10:21:27;596.78;;;565.04;;
2824;SDS011;1420;51.324;12.344;2023-07-28T10:23:53;631.18;;;596.16;;
2824;SDS011;1420;51.324;12.344;2023-07-28T10:29:07;559.00;;;529.00;;
2824;SDS011;1420;51.324;12.344;2023-07-28T10:31:29;556.36;;;527.18;;
2824;SDS011;1420;51.324;12.344;2023-07-28T10:33:51;539.38;;;510.16;;
2824;SDS011;1420;51.324;12.344;2023-07-28T10:41:40;490.16;;;464.32;;
2824;SDS011;1420;51.324;12.344;2023-07-28T10:44:07;483.72;;;458.44;;
2824;SDS011;1420;51.324;12.344;2023-07-28T10:46:34;507.20;;;480.82;;
2824;SDS011;1420;51.324;12.344;2023-07-28T10:49:04;685.70;;;646.40;;
2824;SDS011;1420;51.324;12.344;2023-07-28T10:51:28;710.68;;;670.94;;
2824;SDS011;1420;51.324;12.344;2023-07-28T10:53:56;721.86;;;681.24;;
2824;SDS011;1420;51.324;12.344;2023-07-28T10:56:25;718.10;;;677.80;;
2824;SDS011;1420;51.324;12.344;2023-07-28T10:58:56;698.32;;;659.88;;
2824;SDS011;1420;51.324;12.344;2023-07-28T11:01:24;681.48;;;643.90;;
2824;SDS011;1420;51.324;12.344;2023-07-28T11:03:50;725.00;;;683.34;;
2824;SDS011;1420;51.324;12.344;2023-07-28T11:06:17;677.08;;;640.08;;
2824;SDS011;1420;51.324;12.344;2023-07-28T11:08:44;707.70;;;668.94;;
2824;SDS011;1420;51.324;12.344;2023-07-28T11:11:11;740.36;;;697.64;;
2824;SDS011;1420;51.324;12.344;2023-07-28T11:13:39;747.24;;;703.52;;
2824;SDS011;1420;51.324;12.344;2023-07-28T11:16:06;703.44;;;662.86;;
2824;SDS011;1420;51.324;12.344;2023-07-28T11:18:34;721.62;;;680.58;;
2824;SDS011;1420;51.324;12.344;2023-07-28T11:21:02;700.38;;;661.86;;
2824;SDS011;1420;51.324;12.344;2023-07-28T11:23:29;677.08;;;640.10;;
2824;SDS011;1420;51.324;12.344;2023-07-28T11:25:56;712.06;;;671.52;;
2824;SDS011;1420;51.324;12.344;2023-07-28T11:28:23;702.96;;;664.68;;
2824;SDS011;1420;51.324;12.344;2023-07-28T11:30:51;644.42;;;611.34;;
2824;SDS011;1420;51.324;12.344;2023-07-28T11:33:18;657.74;;;622.94;;
2824;SDS011;1420;51.324;12.344;2023-07-28T11:35:45;675.56;;;639.86;;
2824;SDS011;1420;51.324;12.344;2023-07-28T11:38:14;608.16;;;575.14;;
2824;SDS011;1420;51.324;12.344;2023-07-28T11:40:41;629.58;;;596.76;;
2824;SDS011;1420;51.324;12.344;2023-07-28T11:43:08;685.90;;;647.64;;
2824;SDS011;1420;51.324;12.344;2023-07-28T11:45:35;671.88;;;634.98;;
2824;SDS011;1420;51.324;12.344;2023-07-28T11:48:03;656.42;;;619.32;;
2824;SDS011;1420;51.324;12.344;2023-07-28T11:50:34;697.08;;;658.86;;
2824;SDS011;1420;51.324;12.344;2023-07-28T11:52:57;694.88;;;655.78;;
2824;SDS011;1420;51.324;12.344;2023-07-28T11:55:25;771.32;;;725.80;;
2824;SDS011;1420;51.324;12.344;2023-07-28T11:57:52;758.12;;;712.40;;
2824;SDS011;1420;51.324;12.344;2023-07-28T12:00:32;760.88;;;715.02;;
2824;SDS011;1420;51.324;12.344;2023-07-28T12:03:04;745.72;;;701.80;;
2824;SDS011;1420;51.324;12.344;2023-07-28T12:05:31;803.28;;;754.18;;
2824;SDS011;1420;51.324;12.344;2023-07-28T12:07:59;746.66;;;701.54;;
2824;SDS011;1420;51.324;12.344;2023-07-28T12:10:27;740.46;;;696.48;;
2824;SDS011;1420;51.324;12.344;2023-07-28T12:12:54;838.10;;;783.18;;
2824;SDS011;1420;51.324;12.344;2023-07-28T12:15:22;755.48;;;710.92;;
2824;SDS011;1420;51.324;12.344;2023-07-28T12:18:00;810.32;;;759.42;;
2824;SDS011;1420;51.324;12.344;2023-07-28T12:20:34;763.34;;;717.98;;
2824;SDS011;1420;51.324;12.344;2023-07-28T12:23:03;780.86;;;732.50;;
2824;SDS011;1420;51.324;12.344;2023-07-28T12:25:31;772.64;;;725.46;;
2824;SDS011;1420;51.324;12.344;2023-07-28T12:27:58;723.42;;;680.06;;
2824;SDS011;1420;51.324;12.344;2023-07-28T12:30:25;747.70;;;703.56;;
2824;SDS011;1420;51.324;12.344;2023-07-28T12:32:52;779.54;;;732.96;;
2824;SDS011;1420;51.324;12.344;2023-07-28T12:35:20;735.74;;;693.00;;
2824;SDS011;1420;51.324;12.344;2023-07-28T12:37:49;706.94;;;667.54;;
2824;SDS011;1420;51.324;12.344;2023-07-28T12:40:16;730.58;;;688.78;;
2824;SDS011;1420;51.324;12.344;2023-07-28T12:42:43;680.56;;;641.64;;
2824;SDS011;1420;51.324;12.344;2023-07-28T12:45:10;693.04;;;653.84;;
2824;SDS011;1420;51.324;12.344;2023-07-28T12:47:38;673.98;;;637.06;;
2824;SDS011;1420;51.324;12.344;2023-07-28T12:50:06;683.64;;;643.40;;
2824;SDS011;1420;51.324;12.344;2023-07-28T12:52:33;674.82;;;636.90;;
2824;SDS011;1420;51.324;12.344;2023-07-28T12:55:00;705.74;;;665.76;;
2824;SDS011;1420;51.324;12.344;2023-07-28T12:57:28;680.28;;;643.82;;
2824;SDS011;1420;51.324;12.344;2023-07-28T12:59:55;676.56;;;640.00;;
2824;SDS011;1420;51.324;12.344;2023-07-28T13:02:23;666.18;;;630.34;;
2824;SDS011;1420;51.324;12.344;2023-07-28T13:04:50;656.74;;;621.16;;
2824;SDS011;1420;51.324;12.344;2023-07-28T13:07:17;686.16;;;646.50;;
2824;SDS011;1420;51.324;12.344;2023-07-28T13:09:44;699.90;;;659.16;;
2824;SDS011;1420;51.324;12.344;2023-07-28T13:12:12;723.84;;;682.58;;
2824;SDS011;1420;51.324;12.344;2023-07-28T13:14:40;694.14;;;656.94;;
2824;SDS011;1420;51.324;12.344;2023-07-28T13:17:07;772.32;;;726.64;;
2824;SDS011;1420;51.324;12.344;2023-07-28T13:19:34;720.78;;;677.30;;
2824;SDS011;1420;51.324;12.344;2023-07-28T13:22:02;740.36;;;695.88;;
2824;SDS011;1420;51.324;12.344;2023-07-28T13:24:29;730.08;;;685.94;;
2824;SDS011;1420;51.324;12.344;2023-07-28T13:26:56;730.84;;;687.14;;
2824;SDS011;1420;51.324;12.344;2023-07-28T13:29:24;775.78;;;728.08;;
2824;SDS011;1420;51.324;12.344;2023-07-28T13:31:57;725.52;;;682.42;;
2824;SDS011;1420;51.324;12.344;2023-07-28T13:34:19;706.80;;;665.90;;
2824;SDS011;1420;51.324;12.344;2023-07-28T13:36:47;695.76;;;657.26;;
2824;SDS011;1420;51.324;12.344;2023-07-28T13:39:14;713.90;;;672.90;;
2824;SDS011;1420;51.324;12.344;2023-07-28T13:41:41;698.56;;;657.58;;
2824;SDS011;1420;51.324;12.344;2023-07-28T13:44:09;692.18;;;653.52;;
2824;SDS011;1420;51.324;12.344;2023-07-28T13:46:36;697.60;;;656.60;;
2824;SDS011;1420;51.324;12.344;2023-07-28T13:49:04;707.74;;;665.84;;
2824;SDS011;1420;51.324;12.344;2023-07-28T13:51:31;747.84;;;701.22;;
2824;SDS011;1420;51.324;12.344;2023-07-28T13:53:58;752.10;;;706.52;;
2824;SDS011;1420;51.324;12.344;2023-07-28T13:56:26;750.76;;;705.50;;
2824;SDS011;1420;51.324;12.344;2023-07-28T13:58:54;724.46;;;682.00;;
2824;SDS011;1420;51.324;12.344;2023-07-28T14:01:21;770.68;;;723.92;;
2824;SDS011;1420;51.324;12.344;2023-07-28T14:03:49;824.64;;;771.88;;
2824;SDS011;1420;51.324;12.344;2023-07-28T14:06:16;778.60;;;730.68;;
2824;SDS011;1420;51.324;12.344;2023-07-28T14:08:43;738.32;;;693.00;;
2824;SDS011;1420;51.324;12.344;2023-07-28T14:11:10;773.72;;;726.62;;
2824;SDS011;1420;51.324;12.344;2023-07-28T14:13:37;796.34;;;745.12;;
2824;SDS011;1420;51.324;12.344;2023-07-28T14:16:05;828.90;;;777.88;;
2824;SDS011;1420;51.324;12.344;2023-07-28T14:18:32;849.92;;;796.12;;
2824;SDS011;1420;51.324;12.344;2023-07-28T14:21:00;845.56;;;790.90;;
2824;SDS011;1420;51.324;12.344;2023-07-28T14:23:27;803.44;;;753.40;;
2824;SDS011;1420;51.324;12.344;2023-07-28T14:25:54;839.92;;;787.28;;
2824;SDS011;1420;51.324;12.344;2023-07-28T14:28:22;793.82;;;744.32;;
2824;SDS011;1420;51.324;12.344;2023-07-28T14:30:50;776.18;;;727.68;;
2824;SDS011;1420;51.324;12.344;2023-07-28T14:33:17;836.68;;;783.24;;
2824;SDS011;1420;51.324;12.344;2023-07-28T14:35:45;919.36;;;859.26;;
2824;SDS011;1420;51.324;12.344;2023-07-28T14:38:11;882.88;;;826.16;;
2824;SDS011;1420;51.324;12.344;2023-07-28T14:40:39;830.00;;;776.58;;
2824;SDS011;1420;51.324;12.344;2023-07-28T14:43:06;868.00;;;811.24;;
2824;SDS011;1420;51.324;12.344;2023-07-28T14:45:34;872.56;;;815.22;;
2824;SDS011;1420;51.324;12.344;2023-07-28T14:48:02;839.66;;;784.90;;
2824;SDS011;1420;51.324;12.344;2023-07-28T14:50:29;824.08;;;769.52;;
2824;SDS011;1420;51.324;12.344;2023-07-28T14:52:58;870.02;;;813.02;;
2824;SDS011;1420;51.324;12.344;2023-07-28T14:55:25;854.56;;;799.12;;